Terminal Aerodrome Forecast
Issued by NWS Atlanta, GA

Home | Current Version | Previous Version | Text Only | Print | Product List | Glossary On
Versions: 1 2 3 4 5 6 7 8 9 10 11 12 13 14 15 16 17 18 19 20 21 22 23 24 25 26 27 28 29 30 31 32 33 34 35 36 37 38 39 40
442
FTUS42 KFFC 261343 AAA
TAFATL
TAF AMD
KATL 261343Z 2614/2718 28008KT P6SM SKC
     FM261600 20008KT P6SM FEW250
     FM262000 17010G17KT P6SM SCT250
     FM270200 17008KT P6SM BKN250
     FM270900 16010KT P6SM VCSH SCT015 OVC025
     FM271200 15010KT P6SM BKN015 PROB30 2712/2716 VRB15G30KT 5SM
      -TSRA BKN015CB=

USA.gov is the U.S. government's official web portal to all federal, state and local government web resources and services.